メインページ
METAR-TAF:

METAR-TAF

空港 :

フンシャル, マデイラ諸島, ポルトガル

マデイラ空港

緯度: 32-41-52N, 経度: 016-46-28W, 海抜: 59m

現時点の気象観測

当レポートは26分前の05:30(UTC)に作成
北/北東の風 14kt、から北東の間で変化する
気温 20°C
湿度 73%
気圧 1018 hPa
視程10km以上
高度1500ftの雲はほとんどない

METAR: LPMA 200530Z 02014KT 350V050 9999 FEW015 20/15 Q1018

時間: 06:56 (05:56 UTC)

予報

当レポートは56分前の05:00(UTC)に作成
予報は20日の 06時(UTC)から 21日の 06時(UTC)まで有効
の風 15kt
視程10km以上
高度1500ftの雲はほとんどない
確率 40% :
20日の 06時(UTC)から 20日の 12時(UTC)まで一時的に
の風 20kt、最大30ktの突風を伴う

TAF: LPMA 200500Z 2006/2106 01015KT 9999 FEW015 PROB40 TEMPO 2006/2012 36020G30KT

4,000以上の空港の気象観測と天気予報(METAR報とTAF報)

利用可能な観測所は地図上に黄色い丸と赤い丸で示す。

丸の上にカーソルを重ねると観測所名を参照できる。

次にクリックすると気象観測と天気予報を参照できる。

マップの切り替え:黒色「×」印の緑ボタンをクリックして拡大、「-」印の緑ボタンをクリックして縮小、緑色の三角印をクリックして隣りの地図に切り替え


METAR-TAF: